createdAt,value
2018-04-30T00:00:25.318Z,93.60
2018-04-30T00:04:28.874Z,93.60
2018-04-30T00:08:32.471Z,94.20
2018-04-30T00:12:35.189Z,94.00
2018-04-30T00:16:37.910Z,93.90
2018-04-30T00:20:40.702Z,94.10
2018-04-30T00:24:43.780Z,94.10
2018-04-30T00:28:47.667Z,94.00
2018-04-30T00:32:51.160Z,94.10
2018-04-30T00:36:53.874Z,94.10
2018-04-30T00:40:57.378Z,94.00
2018-04-30T00:45:00.110Z,94.00
2018-04-30T00:49:02.842Z,94.10
2018-04-30T00:53:05.652Z,94.10
2018-04-30T00:57:08.502Z,94.20
2018-04-30T01:01:12.196Z,94.30
2018-04-30T01:05:14.994Z,94.40
2018-04-30T01:09:17.787Z,94.40
2018-04-30T01:13:21.308Z,94.50
2018-04-30T01:17:28.618Z,94.60
2018-04-30T01:21:32.117Z,94.60
2018-04-30T01:25:34.953Z,94.60
2018-04-30T01:29:37.878Z,94.30
2018-04-30T01:33:40.587Z,94.30
2018-04-30T01:37:43.439Z,94.40
2018-04-30T01:41:46.173Z,94.80
2018-04-30T01:45:48.957Z,94.80
2018-04-30T01:49:51.754Z,94.90
2018-04-30T01:53:54.507Z,94.70
2018-04-30T01:57:58.050Z,95.00
2018-04-30T02:02:00.778Z,94.90
2018-04-30T02:06:03.586Z,94.80
2018-04-30T02:10:06.402Z,94.90
2018-04-30T02:14:10.057Z,94.50
2018-04-30T02:18:12.845Z,94.50
2018-04-30T02:22:15.653Z,94.50
2018-04-30T02:26:18.386Z,94.90
2018-04-30T02:30:21.242Z,95.10
2018-04-30T02:34:23.969Z,95.00
2018-04-30T02:38:26.719Z,94.80
2018-04-30T02:42:30.219Z,95.50
2018-04-30T02:46:33.014Z,95.50
2018-04-30T02:50:35.801Z,95.80
2018-04-30T02:54:38.589Z,95.80
2018-04-30T02:58:41.579Z,95.80
2018-04-30T03:02:44.378Z,95.80
2018-04-30T03:06:47.118Z,95.80
2018-04-30T03:10:49.898Z,95.80
2018-04-30T03:14:52.616Z,95.70
2018-04-30T03:18:56.161Z,95.70
2018-04-30T03:22:59.379Z,95.70
2018-04-30T03:27:02.150Z,95.70
2018-04-30T03:31:05.696Z,95.70
2018-04-30T03:35:08.435Z,95.70
2018-04-30T03:39:11.146Z,96.00
2018-04-30T03:43:13.925Z,95.70
2018-04-30T03:47:16.642Z,95.70
2018-04-30T03:51:20.101Z,95.70
2018-04-30T03:55:22.824Z,95.70
2018-04-30T03:59:25.589Z,95.70
2018-04-30T04:03:40.213Z,95.80
2018-04-30T04:07:43.722Z,95.80
2018-04-30T04:11:47.222Z,96.00
2018-04-30T04:15:50.033Z,95.90
2018-04-30T04:19:52.803Z,95.80
2018-04-30T04:23:55.539Z,96.00
2018-04-30T04:27:59.007Z,95.80
2018-04-30T04:32:01.739Z,95.80
2018-04-30T04:36:05.326Z,95.50
2018-04-30T04:40:08.159Z,95.40
2018-04-30T04:44:11.651Z,95.50
2018-04-30T04:48:14.405Z,95.50
2018-04-30T04:52:18.520Z,95.40
2018-04-30T04:56:21.399Z,95.40
2018-04-30T05:00:25.016Z,95.30
2018-04-30T05:04:27.968Z,95.30
2018-04-30T05:08:30.909Z,95.40
2018-04-30T05:12:33.718Z,95.40
2018-04-30T05:16:37.473Z,95.20
2018-04-30T05:20:40.366Z,95.20
2018-04-30T05:24:43.426Z,95.40
2018-04-30T05:28:46.364Z,95.40
2018-04-30T05:32:49.291Z,95.40
2018-04-30T05:36:52.142Z,95.40
2018-04-30T05:40:55.483Z,95.30
2018-04-30T05:44:58.209Z,95.20
2018-04-30T05:49:00.979Z,95.10
2018-04-30T05:53:03.895Z,94.40
2018-04-30T05:57:06.727Z,94.00
2018-04-30T06:01:09.589Z,93.70
2018-04-30T06:05:12.408Z,93.40
2018-04-30T06:09:15.181Z,93.20
2018-04-30T06:13:17.923Z,93.40
2018-04-30T06:17:20.652Z,93.40
2018-04-30T06:21:23.397Z,93.60
2018-04-30T06:25:27.017Z,93.60
2018-04-30T06:29:29.738Z,93.70
2018-04-30T06:33:32.472Z,92.80
2018-04-30T06:37:36.428Z,92.20
2018-04-30T06:41:39.149Z,91.70
2018-04-30T06:45:41.873Z,90.40
2018-04-30T06:49:45.547Z,84.70
2018-04-30T06:53:48.305Z,84.40
2018-04-30T06:57:51.211Z,78.20
2018-04-30T07:01:54.054Z,73.90
2018-04-30T07:05:57.602Z,72.80
2018-04-30T07:10:02.022Z,72.70
2018-04-30T07:14:05.526Z,72.00
2018-04-30T07:18:09.065Z,74.10
2018-04-30T07:22:11.842Z,73.60
2018-04-30T07:26:15.382Z,66.20
2018-04-30T07:30:22.174Z,65.50
2018-04-30T07:34:25.008Z,67.50
2018-04-30T07:38:27.807Z,64.10
2018-04-30T07:42:30.817Z,62.90
2018-04-30T07:46:33.607Z,62.00
2018-04-30T07:50:36.488Z,60.90
2018-04-30T07:54:40.220Z,64.60
2018-04-30T07:58:43.027Z,63.50
2018-04-30T08:02:45.788Z,60.60
2018-04-30T08:06:48.512Z,59.90
2018-04-30T08:10:51.252Z,58.70
2018-04-30T08:14:54.770Z,57.70
2018-04-30T08:18:57.539Z,57.00
2018-04-30T08:23:00.294Z,53.90
2018-04-30T08:27:03.046Z,52.90
2018-04-30T08:31:05.847Z,49.70
2018-04-30T08:35:08.592Z,48.80
2018-04-30T08:39:11.319Z,48.30
2018-04-30T08:43:14.020Z,45.80
2018-04-30T08:47:16.764Z,43.10
2018-04-30T08:51:20.413Z,42.70
2018-04-30T08:55:23.461Z,42.40
2018-04-30T08:59:26.181Z,38.40
2018-04-30T09:03:29.097Z,41.00
2018-04-30T09:07:33.090Z,37.80
2018-04-30T09:11:36.476Z,36.80
2018-04-30T09:15:39.265Z,41.50
2018-04-30T09:19:42.129Z,40.80
2018-04-30T09:23:44.919Z,40.40
2018-04-30T09:27:52.201Z,39.10
2018-04-30T09:31:56.789Z,37.00
2018-04-30T09:35:59.597Z,36.80
2018-04-30T09:40:02.354Z,35.40
2018-04-30T09:44:05.108Z,34.80
2018-04-30T09:48:07.861Z,34.50
2018-04-30T09:52:10.605Z,34.60
2018-04-30T09:56:13.347Z,39.10
2018-04-30T10:00:16.127Z,37.00
2018-04-30T10:04:19.640Z,35.70
2018-04-30T10:08:23.150Z,36.70
2018-04-30T10:12:26.706Z,36.40
2018-04-30T10:16:36.852Z,36.50
2018-04-30T10:20:42.608Z,34.60
2018-04-30T10:24:53.707Z,33.90
2018-04-30T10:28:56.477Z,35.80
2018-04-30T10:32:59.510Z,34.50
2018-04-30T10:37:02.545Z,34.60
2018-04-30T10:41:05.337Z,35.80
2018-04-30T10:45:08.134Z,34.00
2018-04-30T10:49:10.928Z,34.10
2018-04-30T10:53:13.955Z,31.30
2018-04-30T10:57:16.939Z,32.90
2018-04-30T11:01:19.661Z,30.90
2018-04-30T11:05:22.516Z,34.30
2018-04-30T11:09:25.265Z,32.80
2018-04-30T11:13:28.096Z,30.70
2018-04-30T11:17:30.963Z,29.70
2018-04-30T11:21:33.718Z,29.60
2018-04-30T11:25:36.544Z,31.00
2018-04-30T11:29:39.303Z,31.40
2018-04-30T11:33:45.706Z,29.90
2018-04-30T11:37:49.069Z,29.70
2018-04-30T11:41:55.880Z,30.50
2018-04-30T11:46:02.703Z,34.10
2018-04-30T11:50:05.438Z,32.30
2018-04-30T11:54:09.957Z,31.30
2018-04-30T11:58:13.675Z,31.30
2018-04-30T12:02:17.189Z,29.40
2018-04-30T12:06:24.893Z,29.50
2018-04-30T12:10:27.637Z,31.50
2018-04-30T12:14:31.476Z,30.40
2018-04-30T12:18:34.655Z,29.70
2018-04-30T12:22:38.641Z,28.40
2018-04-30T12:26:53.783Z,28.20
2018-04-30T12:30:57.218Z,26.90
2018-04-30T12:35:00.033Z,26.90
2018-04-30T12:39:03.021Z,26.90
2018-04-30T12:43:06.484Z,27.10
2018-04-30T12:47:09.329Z,26.30
2018-04-30T12:51:12.109Z,26.30
2018-04-30T12:55:19.582Z,27.40
2018-04-30T12:59:22.335Z,25.70
2018-04-30T13:03:30.361Z,26.00
2018-04-30T13:07:38.399Z,25.50
2018-04-30T13:11:45.479Z,25.60
2018-04-30T13:15:49.260Z,24.60
2018-04-30T13:19:52.829Z,24.80
2018-04-30T13:23:56.344Z,24.70
2018-04-30T13:27:59.896Z,23.60
2018-04-30T13:32:02.687Z,23.50
2018-04-30T13:36:05.538Z,24.60
2018-04-30T13:40:08.378Z,25.50
2018-04-30T13:44:11.193Z,24.10
2018-04-30T13:48:14.074Z,23.10
2018-04-30T13:52:16.980Z,24.40
2018-04-30T13:56:19.824Z,22.90
2018-04-30T14:00:23.408Z,23.30
2018-04-30T14:04:26.464Z,23.40
2018-04-30T14:08:30.458Z,24.00
2018-04-30T14:12:33.227Z,23.10
2018-04-30T14:16:35.977Z,23.10
2018-04-30T14:20:38.937Z,22.80
2018-04-30T14:24:41.692Z,20.80
2018-04-30T14:28:45.322Z,21.20
2018-04-30T14:32:48.851Z,24.20
2018-04-30T14:36:51.595Z,24.20
2018-04-30T14:40:54.507Z,22.50
2018-04-30T14:44:57.273Z,23.20
2018-04-30T14:49:00.152Z,22.20
2018-04-30T14:53:02.905Z,22.40
2018-04-30T14:57:05.707Z,23.80
2018-04-30T15:01:09.697Z,22.70
2018-04-30T15:05:12.481Z,22.70
2018-04-30T15:09:15.407Z,25.80
2018-04-30T15:13:18.224Z,26.60
2018-04-30T15:17:21.004Z,25.20
2018-04-30T15:21:23.834Z,28.10
2018-04-30T15:25:26.846Z,31.00
2018-04-30T15:29:32.756Z,31.30
2018-04-30T15:33:41.122Z,31.20
2018-04-30T15:37:48.796Z,30.80
2018-04-30T15:41:55.943Z,33.00
2018-04-30T15:46:01.422Z,32.00
2018-04-30T15:50:08.393Z,31.70
2018-04-30T15:54:15.521Z,32.80
2018-04-30T15:58:20.674Z,33.20
2018-04-30T16:02:27.130Z,32.70
2018-04-30T16:06:32.897Z,33.30
2018-04-30T16:10:39.035Z,31.80
2018-04-30T16:14:45.956Z,33.00
2018-04-30T16:18:51.582Z,32.60
2018-04-30T16:22:58.182Z,33.60
2018-04-30T16:27:04.854Z,33.80
2018-04-30T16:31:07.681Z,33.70
2018-04-30T16:35:11.177Z,32.10
2018-04-30T16:39:14.656Z,33.40
2018-04-30T16:43:17.390Z,33.40
2018-04-30T16:47:20.885Z,36.30
2018-04-30T16:51:24.561Z,33.00
2018-04-30T16:55:27.290Z,33.00
2018-04-30T16:59:32.793Z,34.60
2018-04-30T17:03:35.648Z,34.60
2018-04-30T17:07:38.444Z,32.50
2018-04-30T17:11:41.230Z,33.60
2018-04-30T17:15:44.028Z,32.40
2018-04-30T17:19:46.900Z,33.70
2018-04-30T17:23:50.688Z,29.50
2018-04-30T17:27:54.634Z,28.90
2018-04-30T17:31:59.386Z,31.20
2018-04-30T17:36:02.331Z,32.30
2018-04-30T17:40:05.052Z,27.80
2018-04-30T17:44:07.811Z,27.80
2018-04-30T17:48:10.662Z,29.60
2018-04-30T17:52:13.424Z,29.90
2018-04-30T17:56:16.325Z,30.90
2018-04-30T18:00:19.236Z,33.00
2018-04-30T18:04:22.749Z,36.30
2018-04-30T18:08:26.302Z,40.20
2018-04-30T18:12:29.319Z,40.10
2018-04-30T18:16:32.144Z,41.50
2018-04-30T18:20:34.929Z,42.30
2018-04-30T18:24:37.789Z,44.40
2018-04-30T18:28:40.652Z,47.50
2018-04-30T18:32:43.544Z,46.70
2018-04-30T18:36:46.399Z,48.20
2018-04-30T18:40:49.528Z,49.80
2018-04-30T18:44:53.858Z,51.80
2018-04-30T18:48:56.683Z,51.40
2018-04-30T18:52:59.397Z,52.80
2018-04-30T18:57:03.582Z,54.60
2018-04-30T19:01:06.403Z,54.50
2018-04-30T19:05:09.464Z,54.20
2018-04-30T19:09:12.540Z,55.80
2018-04-30T19:13:15.603Z,54.80
2018-04-30T19:17:18.459Z,56.50
2018-04-30T19:21:21.251Z,57.40
2018-04-30T19:25:24.313Z,59.30
2018-04-30T19:29:27.867Z,57.60
2018-04-30T19:33:31.112Z,59.30
2018-04-30T19:37:35.106Z,60.10
2018-04-30T19:41:37.874Z,60.70
2018-04-30T19:45:41.107Z,58.90
2018-04-30T19:49:43.938Z,60.20
2018-04-30T19:53:46.707Z,60.40
2018-04-30T19:57:49.487Z,60.80
2018-04-30T20:01:53.009Z,61.80
2018-04-30T20:05:56.657Z,62.50
2018-04-30T20:09:59.389Z,62.50
2018-04-30T20:14:02.145Z,63.10
2018-04-30T20:18:06.977Z,63.50
2018-04-30T20:22:09.713Z,64.30
2018-04-30T20:26:12.450Z,64.30
2018-04-30T20:30:15.986Z,66.90
2018-04-30T20:34:18.710Z,66.90
2018-04-30T20:38:21.662Z,66.70
2018-04-30T20:42:24.453Z,67.70
2018-04-30T20:46:27.203Z,65.50
2018-04-30T20:50:30.037Z,64.40
2018-04-30T20:54:32.782Z,64.90
2018-04-30T20:58:35.657Z,64.80
2018-04-30T21:02:38.400Z,66.60
2018-04-30T21:06:41.205Z,66.90
2018-04-30T21:10:44.032Z,65.40
2018-04-30T21:14:46.841Z,65.90
2018-04-30T21:18:49.585Z,66.20
2018-04-30T21:22:52.368Z,66.90
2018-04-30T21:26:55.151Z,67.30
2018-04-30T21:30:58.665Z,69.10
2018-04-30T21:35:02.194Z,69.80
2018-04-30T21:39:05.453Z,69.70
2018-04-30T21:43:08.213Z,69.90
2018-04-30T21:47:10.976Z,70.50
2018-04-30T21:51:14.499Z,71.10
2018-04-30T21:55:18.066Z,70.70
2018-04-30T21:59:21.065Z,71.30
2018-04-30T22:03:23.845Z,71.70
2018-04-30T22:07:26.573Z,72.60
2018-04-30T22:11:29.459Z,72.80
2018-04-30T22:15:33.036Z,72.40
2018-04-30T22:19:35.839Z,72.40
2018-04-30T22:23:38.563Z,73.10
2018-04-30T22:27:41.490Z,73.80
2018-04-30T22:31:44.266Z,74.70
2018-04-30T22:35:46.999Z,75.80
2018-04-30T22:39:49.813Z,75.70
2018-04-30T22:43:53.276Z,75.70
2018-04-30T22:47:56.001Z,75.70
2018-04-30T22:51:58.817Z,77.00
2018-04-30T22:56:02.312Z,76.30
2018-04-30T23:00:05.162Z,76.20
2018-04-30T23:04:08.086Z,77.20
2018-04-30T23:08:10.880Z,77.70
2018-04-30T23:12:13.894Z,77.90
2018-04-30T23:16:16.693Z,78.70
2018-04-30T23:20:19.420Z,78.90
2018-04-30T23:24:22.247Z,78.30
2018-04-30T23:28:24.961Z,78.80
2018-04-30T23:32:27.757Z,78.40
2018-04-30T23:36:30.557Z,78.00
2018-04-30T23:40:33.381Z,78.30
2018-04-30T23:44:36.198Z,79.30
2018-04-30T23:48:38.911Z,78.10
2018-04-30T23:52:42.396Z,79.40
2018-04-30T23:56:45.116Z,79.40
